Time;durP1;ratioP1;P1;durP2;ratioP2;P2;SDS_P1;SDS_P2;PMS_P1;PMS_P2;Temp;Humidity;BMP_temperature;BMP_pressure;BME280_temperature;BME280_humidity;BME280_pressure;Samples;Min_cycle;Max_cycle;Signal;HPM_P1;HPM_P2
2024/01/22 00:00:07;;;;;;;;;;;;;;;-7.08;88.67;94544.31;5066231;28;20414;-72
2024/01/22 00:02:35;;;;;;;;;;;;;;;-7.21;87.40;94549.88;5067816;28;19946;-73
2024/01/22 00:05:01;;;;;;;;;;;;;;;-7.09;88.18;94548.50;5064093;28;19924;-73
2024/01/22 00:07:28;;;;;;;;;;;;;;;-7.05;88.07;94554.19;5062650;28;19926;-73
2024/01/22 00:09:54;;;;;;;;;;;;;;;-6.96;89.00;94552.97;5065606;28;19925;-72
2024/01/22 00:12:21;;;;;;;;;;;;;;;-6.84;88.49;94549.91;5068019;28;19924;-72
2024/01/22 00:14:48;;;;;;;;;;;;;;;-6.86;87.14;94552.47;5068960;28;20529;-72
2024/01/22 00:17:14;;;;;;;;;;;;;;;-6.84;87.16;94549.91;5066329;28;20387;-72
2024/01/22 00:19:42;;;;;;;;;;;;;;;-6.91;86.75;94558.56;5066229;28;19928;-72
2024/01/22 00:22:09;;;;;;;;;;;;;;;-7.06;85.18;94562.53;5061601;28;20468;-72
2024/01/22 00:24:36;;;;;;;;;;;;;;;-7.26;85.29;94562.53;5066180;28;19927;-72
2024/01/22 00:27:02;;;;;;;;;;;;;;;-7.38;85.73;94560.59;5063915;28;19934;-72
2024/01/22 00:29:29;;;;;;;;;;;;;;;-7.46;86.15;94560.91;5065805;28;20438;-72
2024/01/22 00:31:55;;;;;;;;;;;;;;;-7.46;89.38;94558.44;5063349;28;19921;-72
2024/01/22 00:34:22;;;;;;;;;;;;;;;-7.43;87.75;94565.78;5065140;28;19931;-72
2024/01/22 00:36:50;;;;;;;;;;;;;;;-7.49;87.81;94560.25;5063685;28;19920;-72
2024/01/22 00:39:17;;;;;;;;;;;;;;;-7.57;88.09;94563.91;5065137;28;19924;-72
2024/01/22 00:41:43;;;;;;;;;;;;;;;-7.57;87.64;94568.06;5065991;28;19925;-71
2024/01/22 00:44:10;;;;;;;;;;;;;;;-7.59;87.71;94565.63;5066766;28;19960;-71
2024/01/22 00:46:37;;;;;;;;;;;;;;;-7.58;88.06;94564.78;5066679;28;20003;-72
2024/01/22 00:49:03;;;;;;;;;;;;;;;-7.65;87.09;94566.72;5065614;28;20297;-72
2024/01/22 00:51:30;;;;;;;;;;;;;;;-7.60;88.19;94554.03;5063874;28;19935;-72
2024/01/22 00:53:58;;;;;;;;;;;;;;;-7.60;86.55;94559.03;5062681;28;19924;-72
2024/01/22 00:56:24;;;;;;;;;;;;;;;-7.68;86.33;94561.84;5065198;28;19920;-72
2024/01/22 00:58:51;;;;;;;;;;;;;;;-7.80;86.63;94553.22;5066643;28;19931;-71
2024/01/22 01:01:18;;;;;;;;;;;;;;;-7.78;87.75;94558.94;5064807;28;19926;-72
2024/01/22 01:03:44;;;;;;;;;;;;;;;-7.83;85.89;94555.81;5064155;28;20578;-72
2024/01/22 01:06:11;;;;;;;;;;;;;;;-7.83;87.16;94550.84;5062961;28;20447;-72
2024/01/22 01:08:38;;;;;;;;;;;;;;;-7.91;87.04;94553.66;5063986;28;19925;-71
2024/01/22 01:11:06;;;;;;;;;;;;;;;-8.00;87.50;94556.53;5065176;28;19924;-71
2024/01/22 01:13:32;;;;;;;;;;;;;;;-7.99;87.51;94549.84;5064763;28;19920;-72
2024/01/22 01:15:59;;;;;;;;;;;;;;;-8.05;90.10;94545.94;5061927;28;19940;-71
2024/01/22 01:18:26;;;;;;;;;;;;;;;-7.98;89.93;94543.97;5066170;28;19927;-71
2024/01/22 01:20:52;;;;;;;;;;;;;;;-7.99;89.27;94548.19;5066694;28;19928;-71
2024/01/22 01:23:19;;;;;;;;;;;;;;;-8.00;90.85;94544.06;5064453;28;20373;-71
2024/01/22 01:25:46;;;;;;;;;;;;;;;-7.89;92.25;94541.13;5063162;28;19924;-71
2024/01/22 01:28:14;;;;;;;;;;;;;;;-7.83;92.92;94540.06;5065553;28;19949;-71
2024/01/22 01:30:40;;;;;;;;;;;;;;;-7.72;91.42;94544.59;5064512;28;19924;-71
2024/01/22 01:33:07;;;;;;;;;;;;;;;-7.79;89.31;94549.84;5068408;28;20271;-71
2024/01/22 01:35:34;;;;;;;;;;;;;;;-7.87;89.04;94541.84;5066832;28;20313;-71
2024/01/22 01:38:00;;;;;;;;;;;;;;;-7.80;90.47;94540.75;5060584;28;19931;-72
2024/01/22 01:40:27;;;;;;;;;;;;;;;-7.85;88.15;94539.28;5066624;28;19920;-72
2024/01/22 01:42:55;;;;;;;;;;;;;;;-7.86;88.95;94541.00;5063795;28;19920;-71
2024/01/22 01:45:23;;;;;;;;;;;;;;;-7.84;89.64;94544.22;5066695;28;19943;-71
2024/01/22 01:47:50;;;;;;;;;;;;;;;-7.81;89.44;94539.13;5060293;28;19927;-71
2024/01/22 01:50:17;;;;;;;;;;;;;;;-7.82;88.33;94541.69;5066293;28;19921;-71
2024/01/22 01:52:44;;;;;;;;;;;;;;;-7.88;86.59;94529.47;5065410;28;19924;-71
2024/01/22 01:55:11;;;;;;;;;;;;;;;-7.96;86.25;94539.75;5065968;28;19920;-71
2024/01/22 01:57:39;;;;;;;;;;;;;;;-7.95;87.63;94541.38;5064424;28;19924;-71
2024/01/22 02:00:06;;;;;;;;;;;;;;;-7.96;88.35;94537.28;5067670;28;19924;-71
2024/01/22 02:02:34;;;;;;;;;;;;;;;-7.84;90.21;94534.25;5067055;28;19924;-71
2024/01/22 02:05:02;;;;;;;;;;;;;;;-7.82;89.52;94539.97;5059883;28;19927;-71
2024/01/22 02:07:29;;;;;;;;;;;;;;;-7.69;89.81;94545.25;5058431;28;20268;-71
2024/01/22 02:09:56;;;;;;;;;;;;;;;-7.67;90.21;94537.72;5064454;28;19924;-71
2024/01/22 02:12:23;;;;;;;;;;;;;;;-7.65;89.21;94551.75;5061841;28;19932;-72
2024/01/22 02:14:49;;;;;;;;;;;;;;;-7.63;89.12;94538.38;5060462;28;19924;-71
2024/01/22 02:17:17;;;;;;;;;;;;;;;-7.59;89.02;94538.19;5063670;28;19921;-71
2024/01/22 02:19:45;;;;;;;;;;;;;;;-7.52;88.77;94543.72;5063241;28;19927;-71
2024/01/22 02:22:12;;;;;;;;;;;;;;;-7.44;90.12;94540.91;5065189;28;19930;-71
2024/01/22 02:24:40;;;;;;;;;;;;;;;-7.42;89.59;94544.13;5065042;28;19927;-71
2024/01/22 02:27:06;;;;;;;;;;;;;;;-7.38;90.24;94548.09;5066444;28;20015;-71
2024/01/22 02:29:33;;;;;;;;;;;;;;;-7.37;90.61;94547.22;5064803;28;20286;-71
2024/01/22 02:32:00;;;;;;;;;;;;;;;-7.40;89.80;94540.69;5063092;28;19927;-72
2024/01/22 02:34:26;;;;;;;;;;;;;;;-7.30;89.57;94542.78;5063776;28;19928;-72
2024/01/22 02:36:53;;;;;;;;;;;;;;;-7.28;90.96;94538.53;5063868;28;19927;-72
2024/01/22 02:39:20;;;;;;;;;;;;;;;-7.22;91.20;94537.44;5064007;28;19930;-72
2024/01/22 02:41:48;;;;;;;;;;;;;;;-7.25;89.27;94536.72;5065151;28;19921;-72
2024/01/22 02:44:14;;;;;;;;;;;;;;;-7.20;88.77;94526.53;5063301;28;20418;-72
2024/01/22 02:46:41;;;;;;;;;;;;;;;-7.16;88.76;94538.00;5063873;28;19931;-72
2024/01/22 02:49:08;;;;;;;;;;;;;;;-7.13;89.73;94535.34;5063133;28;20400;-72
2024/01/22 02:51:34;;;;;;;;;;;;;;;-7.08;89.79;94529.34;5064856;28;19924;-72
2024/01/22 02:54:01;;;;;;;;;;;;;;;-7.12;88.65;94528.66;5061532;28;19928;-72
2024/01/22 02:56:28;;;;;;;;;;;;;;;-7.03;89.82;94528.25;5062572;28;20413;-72
2024/01/22 02:58:56;;;;;;;;;;;;;;;-6.94;90.16;94521.22;5064149;28;19924;-72
2024/01/22 03:01:23;;;;;;;;;;;;;;;-6.92;90.13;94530.25;5062700;28;19931;-72
2024/01/22 03:03:49;;;;;;;;;;;;;;;-6.87;91.24;94530.03;5064176;28;20388;-72
2024/01/22 03:06:16;;;;;;;;;;;;;;;-6.80;91.51;94523.91;5060678;28;19935;-72
2024/01/22 03:08:42;;;;;;;;;;;;;;;-6.70;91.95;94529.28;5061625;28;19924;-72
2024/01/22 03:11:10;;;;;;;;;;;;;;;-6.66;92.46;94530.75;5063494;28;19920;-72
2024/01/22 03:13:37;;;;;;;;;;;;;;;-6.62;92.56;94524.69;5062682;28;19921;-72
2024/01/22 03:16:05;;;;;;;;;;;;;;;-6.53;93.12;94530.16;5066206;28;20007;-72
2024/01/22 03:18:32;;;;;;;;;;;;;;;-6.51;93.40;94538.38;5062593;28;19931;-74
2024/01/22 03:20:58;;;;;;;;;;;;;;;-6.53;94.93;94533.44;5065819;28;19927;-74
2024/01/22 03:23:25;;;;;;;;;;;;;;;-6.42;95.33;94540.47;5063254;28;19931;-74
2024/01/22 03:25:52;;;;;;;;;;;;;;;-6.35;94.93;94541.78;5065349;28;19921;-74
2024/01/22 03:28:18;;;;;;;;;;;;;;;-6.31;95.45;94547.44;5060581;28;19970;-74
2024/01/22 03:30:45;;;;;;;;;;;;;;;-6.35;95.07;94540.97;5062026;28;19924;-74
2024/01/22 03:33:13;;;;;;;;;;;;;;;-6.33;95.65;94555.03;5069658;28;19924;-74
2024/01/22 03:35:40;;;;;;;;;;;;;;;-6.28;96.44;94548.97;5069437;28;19934;-74
2024/01/22 03:38:06;;;;;;;;;;;;;;;-6.32;96.28;94553.31;5063219;28;20567;-74
2024/01/22 03:40:33;;;;;;;;;;;;;;;-6.33;96.50;94552.53;5067215;28;19921;-74
2024/01/22 03:43:00;;;;;;;;;;;;;;;-6.39;96.60;94544.50;5066532;28;20465;-74
2024/01/22 03:45:26;;;;;;;;;;;;;;;-6.44;96.64;94558.03;5068446;28;20278;-75
2024/01/22 03:47:53;;;;;;;;;;;;;;;-6.44;98.02;94545.53;5069014;28;19924;-74
2024/01/22 03:50:21;;;;;;;;;;;;;;;-6.36;98.52;94546.84;5066918;28;19920;-74
2024/01/22 03:52:47;;;;;;;;;;;;;;;-6.36;98.74;94547.66;5064615;28;19920;-74
2024/01/22 03:55:13;;;;;;;;;;;;;;;-6.31;99.13;94548.25;5066014;28;20393;-73
2024/01/22 03:57:40;;;;;;;;;;;;;;;-6.23;99.51;94545.38;5067876;28;19924;-73
2024/01/22 04:00:07;;;;;;;;;;;;;;;-6.21;98.58;94561.13;5066000;28;19921;-73
2024/01/22 04:02:34;;;;;;;;;;;;;;;-6.18;97.90;94557.66;5067573;28;20011;-73
2024/01/22 04:05:01;;;;;;;;;;;;;;;-6.12;97.57;94546.56;5065018;28;20785;-73
2024/01/22 04:07:29;;;;;;;;;;;;;;;-6.08;96.94;94551.34;5065385;28;19920;-73
2024/01/22 04:09:56;;;;;;;;;;;;;;;-6.06;96.23;94553.75;5062049;28;19928;-73
2024/01/22 04:12:23;;;;;;;;;;;;;;;-6.14;95.95;94548.31;5064720;28;19986;-73
2024/01/22 04:14:49;;;;;;;;;;;;;;;-6.09;95.96;94543.91;5065788;28;20259;-73
2024/01/22 04:17:18;;;;;;;;;;;;;;;-6.06;95.78;94548.75;5063035;28;19926;-73
2024/01/22 04:19:44;;;;;;;;;;;;;;;-6.04;95.85;94544.47;5065427;28;20400;-73
2024/01/22 04:22:11;;;;;;;;;;;;;;;-5.99;95.40;94547.53;5063087;28;19978;-73
2024/01/22 04:24:39;;;;;;;;;;;;;;;-6.02;95.16;94555.19;5066758;28;20380;-73
2024/01/22 04:27:06;;;;;;;;;;;;;;;-5.95;94.61;94550.69;5066813;28;19924;-73
2024/01/22 04:29:33;;;;;;;;;;;;;;;-5.96;94.54;94554.91;5061195;28;20304;-73
2024/01/22 04:32:00;;;;;;;;;;;;;;;-5.94;94.80;94552.31;5066640;28;19927;-73
2024/01/22 04:34:27;;;;;;;;;;;;;;;-6.04;95.68;94557.00;5067264;28;20281;-72
2024/01/22 04:36:53;;;;;;;;;;;;;;;-5.98;95.72;94554.16;5063044;28;19924;-73
2024/01/22 04:39:20;;;;;;;;;;;;;;;-6.02;94.77;94552.69;5062368;28;19927;-73
2024/01/22 04:41:48;;;;;;;;;;;;;;;-6.09;93.31;94548.91;5067668;28;19931;-73
2024/01/22 04:44:15;;;;;;;;;;;;;;;-6.16;95.47;94550.88;5065092;28;20016;-72
2024/01/22 04:46:41;;;;;;;;;;;;;;;-6.10;97.01;94540.59;5063641;28;19931;-72
2024/01/22 04:49:09;;;;;;;;;;;;;;;-6.04;96.32;94557.81;5064736;28;19931;-73
2024/01/22 04:51:36;;;;;;;;;;;;;;;-6.00;95.94;94547.59;5065994;28;19920;-73
2024/01/22 04:54:02;;;;;;;;;;;;;;;-6.04;96.49;94540.31;5066635;28;19927;-73
2024/01/22 04:56:29;;;;;;;;;;;;;;;-6.05;96.40;94545.38;5068177;28;19924;-73
2024/01/22 04:58:57;;;;;;;;;;;;;;;-6.05;96.69;94548.69;5065459;28;20293;-73
2024/01/22 05:01:23;;;;;;;;;;;;;;;-6.04;97.05;94550.31;5068347;28;19926;-73
2024/01/22 05:03:50;;;;;;;;;;;;;;;-6.02;96.50;94546.91;5067886;28;19930;-72
2024/01/22 05:06:17;;;;;;;;;;;;;;;-5.99;95.88;94547.53;5062459;28;19936;-73
2024/01/22 05:08:43;;;;;;;;;;;;;;;-5.94;96.20;94555.63;5065852;28;19927;-73
2024/01/22 05:11:10;;;;;;;;;;;;;;;-5.94;95.40;94555.63;5065074;28;19920;-73
2024/01/22 05:13:37;;;;;;;;;;;;;;;-5.97;94.57;94555.75;5062847;28;19920;-73
2024/01/22 05:16:06;;;;;;;;;;;;;;;-6.01;94.63;94558.50;5066870;28;19930;-73
2024/01/22 05:18:32;;;;;;;;;;;;;;;-6.05;95.38;94555.38;5066698;28;19928;-73
2024/01/22 05:20:59;;;;;;;;;;;;;;;-6.05;96.72;94557.88;5066259;28;19925;-73
2024/01/22 05:23:25;;;;;;;;;;;;;;;-5.97;95.82;94558.28;5064020;28;20540;-73
2024/01/22 05:25:52;;;;;;;;;;;;;;;-6.02;95.42;94554.41;5062676;28;19924;-73
2024/01/22 05:28:19;;;;;;;;;;;;;;;-6.06;95.90;94554.56;5066203;28;19920;-73
2024/01/22 05:30:45;;;;;;;;;;;;;;;-6.02;96.52;94550.19;5067056;28;19924;-73
2024/01/22 05:33:13;;;;;;;;;;;;;;;-6.00;96.22;94558.44;5064908;28;19924;-73
2024/01/22 05:35:40;;;;;;;;;;;;;;;-5.90;97.65;94551.28;5063667;28;19927;-73
2024/01/22 05:38:07;;;;;;;;;;;;;;;-5.90;97.33;94557.09;5062856;28;19930;-73
2024/01/22 05:40:33;;;;;;;;;;;;;;;-5.92;97.79;94555.56;5064341;28;20308;-73
2024/01/22 05:43:00;;;;;;;;;;;;;;;-5.88;97.77;94559.50;5064581;28;19920;-73
2024/01/22 05:45:27;;;;;;;;;;;;;;;-5.86;97.54;94552.75;5062081;28;20441;-73
2024/01/22 05:47:54;;;;;;;;;;;;;;;-5.85;96.78;94549.34;5062605;28;19927;-73
2024/01/22 05:50:22;;;;;;;;;;;;;;;-5.91;97.13;94558.00;5063671;28;20411;-73
2024/01/22 05:52:49;;;;;;;;;;;;;;;-5.83;97.49;94552.59;5065687;28;19943;-73
2024/01/22 05:55:15;;;;;;;;;;;;;;;-5.81;96.89;94550.00;5062053;28;20551;-73
2024/01/22 05:57:42;;;;;;;;;;;;;;;-5.91;98.26;94553.00;5062071;28;19924;-72
2024/01/22 06:00:12;;;;;;;;;;;;;;;-5.84;98.60;94557.69;5062135;28;20488;-73
2024/01/22 06:02:39;;;;;;;;;;;;;;;-5.82;98.54;94559.22;5061416;28;19924;-73
2024/01/22 06:05:06;;;;;;;;;;;;;;;-5.83;97.37;94570.09;5063270;28;19925;-72
2024/01/22 06:07:35;;;;;;;;;;;;;;;-5.82;97.16;94568.41;5063143;28;20007;-72
2024/01/22 06:10:03;;;;;;;;;;;;;;;-5.84;96.77;94570.19;5063487;28;19920;-72
2024/01/22 06:12:29;;;;;;;;;;;;;;;-5.87;97.17;94571.16;5065242;28;20017;-72
2024/01/22 06:14:57;;;;;;;;;;;;;;;-5.90;97.12;94573.81;5064951;28;19924;-72
2024/01/22 06:17:24;;;;;;;;;;;;;;;-5.95;97.36;94574.03;5063705;28;20398;-72
2024/01/22 06:19:50;;;;;;;;;;;;;;;-5.96;97.09;94579.09;5062593;28;19924;-73
2024/01/22 06:22:18;;;;;;;;;;;;;;;-5.99;97.22;94575.06;5063695;28;19924;-72
2024/01/22 06:24:46;;;;;;;;;;;;;;;-5.99;96.82;94580.06;5061159;28;19925;-72
2024/01/22 06:27:12;;;;;;;;;;;;;;;-5.96;97.42;94584.94;5063493;28;19924;-73
2024/01/22 06:29:39;;;;;;;;;;;;;;;-5.98;97.21;94585.88;5061445;28;19925;-72
2024/01/22 06:32:07;;;;;;;;;;;;;;;-6.02;96.44;94590.22;5058752;28;19924;-72
2024/01/22 06:34:34;;;;;;;;;;;;;;;-6.07;96.62;94587.19;5062923;28;19920;-72
2024/01/22 06:37:00;;;;;;;;;;;;;;;-6.09;96.10;94593.94;5060763;28;19924;-72
2024/01/22 06:39:27;;;;;;;;;;;;;;;-6.06;96.91;94591.28;5060064;28;19931;-72
2024/01/22 06:41:55;;;;;;;;;;;;;;;-6.01;96.92;94601.84;5062290;28;19931;-72
2024/01/22 06:44:22;;;;;;;;;;;;;;;-6.18;97.48;94593.50;5059603;28;19978;-72
2024/01/22 06:46:48;;;;;;;;;;;;;;;-6.13;97.31;94584.94;5054128;28;19924;-73
2024/01/22 06:49:15;;;;;;;;;;;;;;;-6.13;96.55;94588.25;5053953;28;20360;-72
2024/01/22 06:51:42;;;;;;;;;;;;;;;-6.07;97.23;94597.19;5053366;28;19924;-73
2024/01/22 06:54:08;;;;;;;;;;;;;;;-5.96;97.43;94587.44;5052590;28;19925;-72
2024/01/22 06:56:35;;;;;;;;;;;;;;;-5.92;96.60;94598.88;5050339;28;19925;-72
2024/01/22 06:59:03;;;;;;;;;;;;;;;-5.82;96.37;94603.47;5050357;28;19978;-72
2024/01/22 07:01:30;;;;;;;;;;;;;;;-5.77;95.66;94607.38;5049292;28;19947;-72
2024/01/22 07:03:56;;;;;;;;;;;;;;;-5.73;95.57;94612.19;5054037;28;20408;-72
2024/01/22 07:06:23;;;;;;;;;;;;;;;-5.68;95.84;94620.28;5055998;28;20335;-72
2024/01/22 07:08:50;;;;;;;;;;;;;;;-5.69;95.44;94618.69;5050060;28;20175;-72
2024/01/22 07:11:16;;;;;;;;;;;;;;;-5.64;94.74;94609.25;5053093;28;19966;-72
2024/01/22 07:13:43;;;;;;;;;;;;;;;-5.90;95.28;94614.66;5050788;28;20385;-72
2024/01/22 07:16:11;;;;;;;;;;;;;;;-5.75;95.44;94606.47;5051360;28;19930;-72
2024/01/22 07:18:38;;;;;;;;;;;;;;;-5.72;96.39;94608.81;5049959;28;20004;-72
2024/01/22 07:21:06;;;;;;;;;;;;;;;-5.67;96.29;94607.72;5049613;28;20316;-71
2024/01/22 07:23:33;;;;;;;;;;;;;;;-5.86;96.41;94579.47;5049408;28;20001;-71
2024/01/22 07:26:00;;;;;;;;;;;;;;;-5.52;96.25;94613.66;5050712;28;20283;-71
2024/01/22 07:28:27;;;;;;;;;;;;;;;-5.44;95.34;94613.25;5050021;28;19925;-72
2024/01/22 07:30:53;;;;;;;;;;;;;;;-5.37;95.18;94608.75;5048397;28;20353;-72
2024/01/22 07:33:21;;;;;;;;;;;;;;;-5.41;95.18;94610.59;5051001;28;19925;-72
2024/01/22 07:35:48;;;;;;;;;;;;;;;-5.26;94.81;94605.69;5050480;28;19928;-72
2024/01/22 07:38:15;;;;;;;;;;;;;;;-5.23;95.16;94595.53;5053555;28;19924;-72
2024/01/22 07:40:41;;;;;;;;;;;;;;;-5.11;94.68;94599.91;5053519;28;20598;-72
2024/01/22 07:43:08;;;;;;;;;;;;;;;-5.01;94.40;94597.72;5049419;28;19931;-72
2024/01/22 07:45:35;;;;;;;;;;;;;;;-4.99;94.34;94597.66;5051175;28;19924;-72
2024/01/22 07:48:01;;;;;;;;;;;;;;;-4.96;94.05;94598.28;5047998;28;19932;-72
2024/01/22 07:50:30;;;;;;;;;;;;;;;-4.85;94.74;94601.94;5051960;28;19920;-72
2024/01/22 07:52:57;;;;;;;;;;;;;;;-4.85;94.22;94597.72;5049185;28;20338;-72
2024/01/22 07:55:23;;;;;;;;;;;;;;;-4.83;93.23;94595.97;5051676;28;19924;-72
2024/01/22 07:57:50;;;;;;;;;;;;;;;-4.83;93.54;94585.94;5047872;28;20303;-72
2024/01/22 08:00:17;;;;;;;;;;;;;;;-4.77;93.99;94592.31;5054366;28;19924;-72
2024/01/22 08:02:44;;;;;;;;;;;;;;;-4.76;94.16;94588.94;5051713;28;19925;-72
2024/01/22 08:05:13;;;;;;;;;;;;;;;-4.64;94.19;94587.44;5053470;28;20749;-72
2024/01/22 08:07:41;;;;;;;;;;;;;;;-4.56;93.74;94589.53;5050552;28;20015;-72
2024/01/22 08:10:08;;;;;;;;;;;;;;;-4.54;93.49;94584.44;5058973;28;20928;-72
2024/01/22 08:12:34;;;;;;;;;;;;;;;-4.55;93.44;94578.63;5048556;28;19927;-72
2024/01/22 08:15:01;;;;;;;;;;;;;;;-4.44;93.32;94580.56;5047400;28;19925;-72
2024/01/22 08:17:28;;;;;;;;;;;;;;;-4.39;92.95;94578.59;5051879;28;19975;-72
2024/01/22 08:19:54;;;;;;;;;;;;;;;-4.30;93.01;94574.78;5052231;28;19931;-72
2024/01/22 08:22:21;;;;;;;;;;;;;;;-4.27;91.73;94571.28;5056765;28;19931;-72
2024/01/22 08:24:49;;;;;;;;;;;;;;;-4.23;92.48;94567.69;5052298;28;19947;-72
2024/01/22 08:27:16;;;;;;;;;;;;;;;-4.23;92.26;94561.00;5053750;28;19920;-72
2024/01/22 08:29:42;;;;;;;;;;;;;;;-4.21;91.99;94569.22;5052607;28;19943;-72
2024/01/22 08:32:09;;;;;;;;;;;;;;;-4.08;93.18;94571.06;5062089;28;19924;-72
2024/01/22 08:34:38;;;;;;;;;;;;;;;-3.97;92.35;94581.31;5054172;28;19920;-72
2024/01/22 08:37:05;;;;;;;;;;;;;;;-3.92;91.53;94571.81;5053194;28;20354;-72
2024/01/22 08:39:31;;;;;;;;;;;;;;;-3.83;91.89;94579.72;5061237;28;19920;-72
2024/01/22 08:41:59;;;;;;;;;;;;;;;-3.64;92.04;94582.78;5050907;28;19920;-72
2024/01/22 08:44:26;;;;;;;;;;;;;;;-3.58;91.21;94586.63;5052573;28;19920;-72
2024/01/22 08:46:53;;;;;;;;;;;;;;;-3.52;91.07;94588.00;5050521;28;19921;-72
2024/01/22 08:49:19;;;;;;;;;;;;;;;-3.44;90.20;94580.00;5053435;28;19920;-72
2024/01/22 08:51:46;;;;;;;;;;;;;;;-3.26;89.15;94581.44;5056333;28;20297;-72
2024/01/22 08:54:12;;;;;;;;;;;;;;;-3.04;88.31;94575.13;5051764;28;19931;-72
2024/01/22 08:56:39;;;;;;;;;;;;;;;-3.83;89.09;94574.69;5054036;28;19924;-72
2024/01/22 08:59:08;;;;;;;;;;;;;;;-4.76;92.11;94586.41;5052960;28;20294;-72
2024/01/22 09:01:35;;;;;;;;;;;;;;;-4.61;93.02;94594.81;5050684;28;19925;-72
2024/01/22 09:04:02;;;;;;;;;;;;;;;-4.50;93.67;94588.41;5050553;28;20012;-72
2024/01/22 09:06:28;;;;;;;;;;;;;;;-4.22;94.18;94581.88;5051325;28;19998;-73
2024/01/22 09:08:55;;;;;;;;;;;;;;;-4.35;94.30;94577.53;5051142;28;20321;-72
2024/01/22 09:11:21;;;;;;;;;;;;;;;-4.66;93.38;94581.72;5050988;28;19939;-72
2024/01/22 09:13:48;;;;;;;;;;;;;;;-4.52;95.25;94570.13;5050333;28;20383;-72
2024/01/22 09:16:17;;;;;;;;;;;;;;;-4.33;96.61;94573.25;5053260;28;19921;-72
2024/01/22 09:18:43;;;;;;;;;;;;;;;-4.13;95.11;94570.53;5051932;28;19925;-72
2024/01/22 09:21:10;;;;;;;;;;;;;;;-3.90;94.77;94559.97;5057571;28;20027;-72
2024/01/22 09:23:36;;;;;;;;;;;;;;;-3.76;92.86;94556.69;5049913;28;19928;-72
2024/01/22 09:26:03;;;;;;;;;;;;;;;-3.88;91.68;94564.91;5055217;28;20336;-72
2024/01/22 09:28:30;;;;;;;;;;;;;;;-3.55;91.62;94568.91;5051782;28;19924;-72
2024/01/22 09:30:58;;;;;;;;;;;;;;;-3.42;90.40;94553.88;5052229;28;19924;-72
2024/01/22 09:33:26;;;;;;;;;;;;;;;-3.16;90.63;94564.09;5051816;28;19924;-72
2024/01/22 09:35:53;;;;;;;;;;;;;;;-3.04;89.24;94559.22;5053588;28;19927;-72
2024/01/22 09:38:19;;;;;;;;;;;;;;;-3.56;86.59;94568.97;5058052;28;20309;-72
2024/01/22 09:40:46;;;;;;;;;;;;;;;-3.43;87.92;94557.31;5049570;28;19921;-72
2024/01/22 09:43:12;;;;;;;;;;;;;;;-3.37;88.98;94561.97;5051695;28;20692;-72
2024/01/22 09:45:39;;;;;;;;;;;;;;;-3.20;89.26;94554.34;5052603;28;19971;-72
2024/01/22 09:48:06;;;;;;;;;;;;;;;-3.19;90.70;94551.72;5057020;28;19924;-72
2024/01/22 09:50:34;;;;;;;;;;;;;;;-2.95;92.13;94551.94;5052086;28;20305;-72
2024/01/22 09:53:05;;;;;;;;;;;;;;;-2.72;92.80;94547.19;5053204;28;20035;-72
2024/01/22 09:55:33;;;;;;;;;;;;;;;-2.55;91.36;94551.19;5049961;28;20367;-73
2024/01/22 09:58:00;;;;;;;;;;;;;;;-2.39;90.11;94555.25;5052073;28;20016;-73
2024/01/22 10:00:27;;;;;;;;;;;;;;;-2.29;90.20;94553.78;5062377;28;20276;-73
2024/01/22 10:02:55;;;;;;;;;;;;;;;-2.10;89.53;94550.09;5050216;28;19927;-73
2024/01/22 10:05:21;;;;;;;;;;;;;;;-1.94;89.83;94544.06;5052470;28;19932;-72
2024/01/22 10:07:49;;;;;;;;;;;;;;;-1.81;88.12;94541.56;5051512;28;19928;-73
2024/01/22 10:10:16;;;;;;;;;;;;;;;-1.69;87.98;94540.75;5051361;28;19929;-73
2024/01/22 10:12:59;;;;;;;;;;;;;;;-1.59;87.75;94537.63;5056171;28;19924;-73
2024/01/22 10:15:26;;;;;;;;;;;;;;;-1.54;85.60;94533.06;5051313;28;19920;-73
2024/01/22 10:17:53;;;;;;;;;;;;;;;-1.53;84.78;94530.44;5057689;28;19921;-73
2024/01/22 10:20:22;;;;;;;;;;;;;;;-1.40;83.39;94530.44;5048540;28;19964;-73
2024/01/22 10:23:00;;;;;;;;;;;;;;;-1.48;82.76;94528.41;5054392;28;19920;-73
2024/01/22 10:25:26;;;;;;;;;;;;;;;-1.52;84.74;94526.22;5050882;28;20011;-73
2024/01/22 10:28:07;;;;;;;;;;;;;;;-1.46;85.25;94518.25;5051209;28;19942;-73
2024/01/22 10:30:33;;;;;;;;;;;;;;;-1.35;85.61;94520.03;5053370;28;19921;-73
2024/01/22 10:33:08;;;;;;;;;;;;;;;-1.28;86.20;94518.72;5049239;28;20389;-73
2024/01/22 10:35:35;;;;;;;;;;;;;;;-1.33;84.40;94519.94;5050368;28;19925;-74
2024/01/22 10:38:10;;;;;;;;;;;;;;;-1.43;83.62;94520.53;5050381;28;19931;-74
2024/01/22 10:40:37;;;;;;;;;;;;;;;-1.62;81.93;94515.94;5050811;28;19925;-74
2024/01/22 10:43:24;;;;;;;;;;;;;;;-2.38;84.63;94518.31;5053144;28;19931;-74
2024/01/22 10:45:51;;;;;;;;;;;;;;;-2.02;84.99;94506.78;5055930;28;19924;-73
2024/01/22 10:48:18;;;;;;;;;;;;;;;-2.15;86.69;94502.56;5055416;28;20742;-74
2024/01/22 10:50:45;;;;;;;;;;;;;;;-2.20;86.85;94504.56;5055867;28;19924;-74
2024/01/22 10:53:13;;;;;;;;;;;;;;;-2.01;84.93;94493.28;5055306;28;20613;-73
2024/01/22 10:55:40;;;;;;;;;;;;;;;-1.99;84.39;94491.47;5054990;28;19943;-74
2024/01/22 10:58:12;;;;;;;;;;;;;;;-1.73;87.21;94488.16;5058413;28;19925;-74
2024/01/22 11:00:43;;;;;;;;;;;;;;;-1.57;85.61;94481.16;5049759;28;19925;-74
2024/01/22 11:03:13;;;;;;;;;;;;;;;-1.36;82.62;94478.09;5050496;28;19967;-74
2024/01/22 11:05:42;;;;;;;;;;;;;;;-1.31;83.57;94480.31;5055702;28;19927;-74
2024/01/22 11:08:10;;;;;;;;;;;;;;;-1.55;80.58;94486.91;5057239;28;19931;-74
2024/01/22 11:10:38;;;;;;;;;;;;;;;-1.89;81.58;94477.34;5049040;28;19920;-74
2024/01/22 11:13:05;;;;;;;;;;;;;;;-1.62;83.39;94486.50;5049667;28;20448;-75
2024/01/22 11:15:32;;;;;;;;;;;;;;;-1.49;81.98;94486.50;5049300;28;19927;-74
2024/01/22 11:17:58;;;;;;;;;;;;;;;-1.92;80.05;94489.34;5053291;28;19939;-74
2024/01/22 11:20:25;;;;;;;;;;;;;;;-1.83;82.47;94473.63;5048512;28;19927;-74
2024/01/22 11:22:59;;;;;;;;;;;;;;;-1.72;83.89;94467.88;5052118;28;19932;-74
2024/01/22 11:25:26;;;;;;;;;;;;;;;-1.53;82.28;94469.16;5049070;28;19924;-74
2024/01/22 11:28:01;;;;;;;;;;;;;;;-1.63;81.14;94464.75;5055617;28;19926;-74
2024/01/22 11:30:28;;;;;;;;;;;;;;;-1.58;77.84;94461.91;5056212;28;20047;-74
2024/01/22 11:32:55;;;;;;;;;;;;;;;-1.53;78.40;94464.13;5061367;28;19920;-74
2024/01/22 11:35:32;;;;;;;;;;;;;;;-1.37;78.17;94457.13;5052620;28;19955;-75
2024/01/22 11:37:59;;;;;;;;;;;;;;;-1.50;74.82;94424.41;5050018;28;19925;-74
2024/01/22 11:40:47;;;;;;;;;;;;;;;-1.49;76.35;94448.69;5049513;28;20659;-74
2024/01/22 11:43:16;;;;;;;;;;;;;;;-1.38;75.48;94440.38;5049867;28;20950;-74
2024/01/22 11:45:43;;;;;;;;;;;;;;;-1.22;78.74;94409.88;5062170;28;19947;-75
2024/01/22 11:48:15;;;;;;;;;;;;;;;-1.06;75.46;94441.59;5049982;28;19935;-75
2024/01/22 11:50:41;;;;;;;;;;;;;;;-1.19;76.54;94433.25;5051786;28;19932;-74
2024/01/22 11:53:08;;;;;;;;;;;;;;;-1.09;78.54;94435.06;5055945;28;19935;-74
2024/01/22 11:55:35;;;;;;;;;;;;;;;-0.77;78.94;94436.19;5055016;28;19931;-75
2024/01/22 11:58:01;;;;;;;;;;;;;;;-0.56;78.96;94427.97;5053666;28;19946;-74
2024/01/22 12:00:29;;;;;;;;;;;;;;;-1.03;75.90;94431.28;5051831;28;19925;-74
2024/01/22 12:02:59;;;;;;;;;;;;;;;-0.89;73.38;94432.03;5055952;28;19924;-74
2024/01/22 12:05:25;;;;;;;;;;;;;;;-0.81;76.31;94420.47;5051792;28;19928;-74
2024/01/22 12:07:53;;;;;;;;;;;;;;;-0.81;77.35;94428.06;5054039;28;19931;-75
2024/01/22 12:10:21;;;;;;;;;;;;;;;-0.80;76.36;94421.28;5052634;28;19921;-75
2024/01/22 12:12:51;;;;;;;;;;;;;;;-0.91;75.83;94422.06;5059824;28;20401;-74
2024/01/22 12:15:22;;;;;;;;;;;;;;;-0.64;75.44;94418.47;5052126;28;19957;-74
2024/01/22 12:17:50;;;;;;;;;;;;;;;-0.32;78.26;94414.50;5058568;28;19925;-74
2024/01/22 12:20:17;;;;;;;;;;;;;;;-0.21;78.37;94406.94;5054326;28;19974;-74
2024/01/22 12:22:44;;;;;;;;;;;;;;;0.05;80.65;94403.41;5054837;28;19925;-75
2024/01/22 12:25:12;;;;;;;;;;;;;;;0.15;78.87;94400.97;5052569;28;19928;-75
2024/01/22 12:27:45;;;;;;;;;;;;;;;0.02;75.04;94401.91;5051324;28;19925;-75
2024/01/22 12:30:14;;;;;;;;;;;;;;;0.00;75.06;94393.66;5055487;28;19927;-75
2024/01/22 12:32:45;;;;;;;;;;;;;;;0.01;73.78;94396.97;5051371;28;20014;-75
2024/01/22 12:35:14;;;;;;;;;;;;;;;0.14;75.64;94397.66;5056486;28;20400;-75
2024/01/22 12:37:47;;;;;;;;;;;;;;;0.19;72.04;94387.97;5058549;28;19991;-75
2024/01/22 12:40:23;;;;;;;;;;;;;;;0.40;74.45;94384.75;5051521;28;20480;-75
2024/01/22 12:42:52;;;;;;;;;;;;;;;0.41;72.31;94388.88;5056228;28;19952;-76
2024/01/22 12:45:20;;;;;;;;;;;;;;;0.57;73.21;94391.03;5054423;28;19921;-75
2024/01/22 12:47:49;;;;;;;;;;;;;;;0.49;71.41;94389.09;5050207;28;20370;-75